Site contains unofficial IBTrACS data. Visit the IBTrACS Website to access archived data.

1881 Tropical Storm NOT_NAMED (1881236N15323)


IBTrACS version v04r00. Visit IBTrACS website for data access.
Please direct all questions to the IBTrACS Q and A forum

Storm track - Intensity - Wind Radii - Intensity Data - Source Data - All data

Summary Information

Storm ID 1881236N15323
Start Aug 23 12Z
Max Intensity 50 kt (Sep 1 00Z)
End Sep 6 12Z
ATCF IDs
Track status Best track data.

Storm track plot

Map of storm track

Intensity plots

Map of storm track

Radial wind information

No radial wind information for this storm


Position and Intensity Table

BASIN ISO_TIME_________ NATURE LAT LON MLC WIND
degrees north degrees east kts
NA 1881-08-23 12:00:00 TS 14.50 -37.50 25
NA 15:00:00 TS 14.60 -38.16 27
NA 18:00:00 TS 14.70 -38.80 30
NA 21:00:00 TS 14.80 -39.40 32
NA 1881-08-24 00:00:00 TS 14.90 -40.00 35
NA 03:00:00 TS 15.01 -40.65 37
NA 06:00:00 TS 15.10 -41.30 40
NA 09:00:00 TS 15.14 -41.90 42
NA 12:00:00 TS 15.20 -42.50 45
NA 15:00:00 TS 15.34 -43.15 45
NA 18:00:00 TS 15.50 -43.80 45
NA 21:00:00 TS 15.61 -44.40 45
NA 1881-08-25 00:00:00 TS 15.70 -45.00 45
NA 03:00:00 TS 15.80 -45.65 45
NA 06:00:00 TS 15.90 -46.30 45
NA 09:00:00 TS 15.99 -46.90 45
NA 12:00:00 TS 16.10 -47.50 45
NA 15:00:00 TS 16.24 -48.15 45
NA 18:00:00 TS 16.40 -48.80 45
NA 21:00:00 TS 16.55 -49.40 42
NA 1881-08-26 00:00:00 TS 16.70 -50.00 40
NA 03:00:00 TS 16.85 -50.65 37
NA 06:00:00 TS 17.00 -51.30 35
NA 09:00:00 TS 17.15 -51.90 35
NA 12:00:00 TS 17.30 -52.50 35
NA 15:00:00 TS 17.45 -53.15 35
NA 18:00:00 TS 17.60 -53.80 35
NA 21:00:00 TS 17.75 -54.40 35
NA 1881-08-27 00:00:00 TS 17.90 -55.00 35
NA 03:00:00 TS 18.05 -55.65 35
NA 06:00:00 TS 18.20 -56.30 35
NA 09:00:00 TS 18.33 -56.93 35
NA 12:00:00 TS 18.50 -57.50 35
NA 15:00:00 TS 18.73 -57.97 35
NA 18:00:00 TS 19.00 -58.40 35
NA 21:00:00 TS 19.25 -58.85 35
NA 1881-08-28 00:00:00 TS 19.50 -59.30 35
NA 03:00:00 TS 19.75 -59.76 35
NA 06:00:00 TS 20.00 -60.20 35
NA 09:00:00 TS 20.21 -60.59 35
NA 12:00:00 TS 20.50 -61.00 35
NA 15:00:00 TS 20.96 -61.48 35
NA 18:00:00 TS 21.50 -62.00 35
NA 21:00:00 TS 22.00 -62.50 35
NA 1881-08-29 00:00:00 TS 22.50 -63.00 35
NA 03:00:00 TS 23.00 -63.50 35
NA 06:00:00 TS 23.50 -64.00 35
NA 09:00:00 TS 24.02 -64.58 35
NA 12:00:00 TS 24.50 -65.00 35
NA 15:00:00 TS 24.88 -65.06 35
NA 18:00:00 TS 25.20 -64.90 35
NA 21:00:00 TS 25.51 -64.73 37
NA 1881-08-30 00:00:00 TS 25.80 -64.50 40
NA 03:00:00 TS 26.10 -64.26 40
NA 06:00:00 TS 26.40 -64.00 40
NA 09:00:00 TS 26.68 -63.81 40
NA 12:00:00 TS 27.00 -63.50 40
NA 15:00:00 TS 27.39 -62.90 40
NA 18:00:00 TS 27.80 -62.20 40
NA 21:00:00 TS 28.15 -61.59 42
NA 1881-08-31 00:00:00 TS 28.50 -61.00 45
NA 03:00:00 TS 28.90 -60.41 45
NA 06:00:00 TS 29.30 -59.80 45
NA 09:00:00 TS 29.66 -59.17 45
NA 12:00:00 TS 30.00 -58.50 45
NA 15:00:00 TS 30.31 -57.76 45
NA 18:00:00 TS 30.60 -57.00 45
NA 21:00:00 TS 30.90 -56.34 47
NA 1881-09-01 00:00:00 TS 31.20 -55.60 50
NA 03:00:00 TS 31.51 -54.51 50
NA 06:00:00 TS 31.80 -53.50 50
NA 09:00:00 TS 32.04 -52.93 50
NA 12:00:00 TS 32.30 -52.70 50
NA 15:00:00 TS 32.63 -52.68 50
NA 18:00:00 TS 33.00 -52.80 50
NA 21:00:00 TS 33.35 -52.85 50
NA 1881-09-02 00:00:00 TS 33.70 -52.90 50
NA 03:00:00 TS 34.06 -52.96 50
NA 06:00:00 TS 34.40 -53.00 50
NA 09:00:00 TS 34.73 -53.02 50
NA 12:00:00 TS 35.00 -53.00 50
NA 15:00:00 TS 35.18 -52.96 50
NA 18:00:00 TS 35.30 -52.90 50
NA 21:00:00 TS 35.40 -52.85 50
NA 1881-09-03 00:00:00 TS 35.50 -52.80 50
NA 03:00:00 TS 35.65 -52.76 50
NA 06:00:00 TS 35.80 -52.70 50
NA 09:00:00 TS 35.91 -52.63 50
NA 12:00:00 TS 36.00 -52.50 50
NA 15:00:00 TS 36.11 -52.27 50
NA 18:00:00 TS 36.20 -52.00 50
NA 21:00:00 TS 36.26 -51.75 50
NA 1881-09-04 00:00:00 TS 36.30 -51.50 50
NA 03:00:00 TS 36.35 -51.25 50
NA 06:00:00 TS 36.40 -51.00 50
NA 09:00:00 TS 36.43 -50.76 50
NA 12:00:00 TS 36.50 -50.50 50
NA 15:00:00 TS 36.64 -50.17 50
NA 18:00:00 TS 36.80 -49.80 50
NA 21:00:00 TS 36.90 -49.40 47
NA 1881-09-05 00:00:00 TS 37.00 -49.00 45
NA 03:00:00 TS 37.15 -48.65 42
NA 06:00:00 TS 37.30 -48.30 40
NA 09:00:00 TS 37.40 -47.91 37
NA 12:00:00 TS 37.50 -47.50 35
NA 15:00:00 TS 37.65 -47.09 32
NA 18:00:00 TS 37.80 -46.70 30
NA 21:00:00 TS 37.90 -46.34 30
NA 1881-09-06 00:00:00 TS 38.00 -46.00 30
NA 03:00:00 TS 38.15 -45.66 30
NA 06:00:00 TS 38.30 -45.30 30
NA 09:00:00 TS 38.41 -44.91 27
NA 12:00:00 TS 38.50 -44.50 25

Source Information

Agency Information
USA
TOKYO
CMA
HKO
NEWDELHI
REUNION
BOM
NADI
WELLINGTON
DS824
TD9636
TD9635
NEUMANN
MLC

All available IBTrACS Data

SEASON BASIN SUBBASIN ISO_TIME_________ NATURE LAT LON DIST2LAND LANDFALL IFLAG USA SSHS MLC LAT MLC LON MLC CLASS MLC WIND STORM SPEED STORM DIR
Year degrees north degrees east km km 1 degrees north degrees east kts kts degrees
1881 NA NA 1881-08-23 12:00:00 TS 14.50 -37.50 1895 1850 _____________O -1 14.50 -37.50 TD 25 13 279
1881 NA NA 15:00:00 TS 14.60 -38.16 1841 1798 _____________P -1 14.60 -38.16 TD 27 13 279
1881 NA NA 18:00:00 TS 14.70 -38.80 1798 1755 _____________O -1 14.70 -38.80 TD 30 12 279
1881 NA NA 21:00:00 TS 14.80 -39.40 1755 1715 _____________P -1 14.80 -39.40 TD 32 12 280
1881 NA NA 1881-08-24 00:00:00 TS 14.90 -40.00 1715 1676 _____________O -1 14.90 -40.00 TS 35 12 280
1881 NA NA 03:00:00 TS 15.01 -40.65 1676 1631 _____________P -1 15.01 -40.65 TS 37 13 279
1881 NA NA 06:00:00 TS 15.10 -41.30 1631 1588 _____________O -1 15.10 -41.30 TS 40 12 276
1881 NA NA 09:00:00 TS 15.14 -41.90 1588 1555 _____________P -1 15.14 -41.90 TS 42 12 275
1881 NA NA 12:00:00 TS 15.20 -42.50 1555 1524 _____________O -1 15.20 -42.50 TS 45 12 279
1881 NA NA 15:00:00 TS 15.34 -43.15 1524 1499 _____________P -1 15.34 -43.15 TS 45 13 283
1881 NA NA 18:00:00 TS 15.50 -43.80 1499 1469 _____________O -1 15.50 -43.80 TS 45 12 282
1881 NA NA 21:00:00 TS 15.61 -44.40 1469 1439 _____________P -1 15.61 -44.40 TS 45 12 280
1881 NA NA 1881-08-25 00:00:00 TS 15.70 -45.00 1439 1412 _____________O -1 15.70 -45.00 TS 45 12 279
1881 NA NA 03:00:00 TS 15.80 -45.65 1406 1381 _____________P -1 15.80 -45.65 TS 45 13 279
1881 NA NA 06:00:00 TS 15.90 -46.30 1381 1360 _____________O -1 15.90 -46.30 TS 45 12 279
1881 NA NA 09:00:00 TS 15.99 -46.90 1360 1340 _____________P -1 15.99 -46.90 TS 45 12 280
1881 NA NA 12:00:00 TS 16.10 -47.50 1340 1324 _____________O -1 16.10 -47.50 TS 45 12 282
1881 NA NA 15:00:00 TS 16.24 -48.15 1324 1314 _____________P -1 16.24 -48.15 TS 45 13 284
1881 NA NA 18:00:00 TS 16.40 -48.80 1315 1297 _____________O -1 16.40 -48.80 TS 45 12 284
1881 NA NA 21:00:00 TS 16.55 -49.40 1297 1290 _____________P -1 16.55 -49.40 TS 42 12 285
1881 NA NA 1881-08-26 00:00:00 TS 16.70 -50.00 1293 1282 _____________O -1 16.70 -50.00 TS 40 12 284
1881 NA NA 03:00:00 TS 16.85 -50.65 1278 1262 _____________P -1 16.85 -50.65 TS 37 13 284
1881 NA NA 06:00:00 TS 17.00 -51.30 1262 1215 _____________O -1 17.00 -51.30 TS 35 12 284
1881 NA NA 09:00:00 TS 17.15 -51.90 1215 1177 _____________P -1 17.15 -51.90 TS 35 12 285
1881 NA NA 12:00:00 TS 17.30 -52.50 1177 1135 _____________O -1 17.30 -52.50 TS 35 12 284
1881 NA NA 15:00:00 TS 17.45 -53.15 1127 1095 _____________P -1 17.45 -53.15 TS 35 13 284
1881 NA NA 18:00:00 TS 17.60 -53.80 1095 1058 _____________O -1 17.60 -53.80 TS 35 12 284
1881 NA NA 21:00:00 TS 17.75 -54.40 1058 1033 _____________P -1 17.75 -54.40 TS 35 12 285
1881 NA NA 1881-08-27 00:00:00 TS 17.90 -55.00 1033 1003 _____________O -1 17.90 -55.00 TS 35 12 284
1881 NA NA 03:00:00 TS 18.05 -55.65 996 980 _____________P -1 18.05 -55.65 TS 35 13 284
1881 NA NA 06:00:00 TS 18.20 -56.30 980 918 _____________O -1 18.20 -56.30 TS 35 13 283
1881 NA NA 09:00:00 TS 18.33 -56.93 918 854 _____________P -1 18.33 -56.93 TS 35 12 285
1881 NA NA 12:00:00 TS 18.50 -57.50 854 812 _____________O -1 18.50 -57.50 TS 35 11 292
1881 NA NA 15:00:00 TS 18.73 -57.97 801 761 _____________P -1 18.73 -57.97 TS 35 10 300
1881 NA NA 18:00:00 TS 19.00 -58.40 761 721 _____________O -1 19.00 -58.40 TS 35 10 302
1881 NA NA 21:00:00 TS 19.25 -58.85 710 673 _____________P -1 19.25 -58.85 TS 35 10 300
1881 NA NA 1881-08-28 00:00:00 TS 19.50 -59.30 673 636 _____________O -1 19.50 -59.30 TS 35 10 300
1881 NA NA 03:00:00 TS 19.75 -59.76 626 594 _____________P -1 19.75 -59.76 TS 35 10 301
1881 NA NA 06:00:00 TS 20.00 -60.20 594 561 _____________O -1 20.00 -60.20 TS 35 9 300
1881 NA NA 09:00:00 TS 20.21 -60.59 561 536 _____________P -1 20.21 -60.59 TS 35 9 304
1881 NA NA 12:00:00 TS 20.50 -61.00 536 512 _____________O -1 20.50 -61.00 TS 35 11 312
1881 NA NA 15:00:00 TS 20.96 -61.48 518 507 _____________P -1 20.96 -61.48 TS 35 14 317
1881 NA NA 18:00:00 TS 21.50 -62.00 511 511 _____________O -1 21.50 -62.00 TS 35 14 318
1881 NA NA 21:00:00 TS 22.00 -62.50 516 515 _____________P -1 22.00 -62.50 TS 35 14 317
1881 NA NA 1881-08-29 00:00:00 TS 22.50 -63.00 532 532 _____________O -1 22.50 -63.00 TS 35 14 317
1881 NA NA 03:00:00 TS 23.00 -63.50 558 558 _____________P -1 23.00 -63.50 TS 35 14 317
1881 NA NA 06:00:00 TS 23.50 -64.00 593 593 _____________O -1 23.50 -64.00 TS 35 14 316
1881 NA NA 09:00:00 TS 24.02 -64.58 634 634 _____________P -1 24.02 -64.58 TS 35 14 318
1881 NA NA 12:00:00 TS 24.50 -65.00 684 684 _____________O -1 24.50 -65.00 TS 35 10 333
1881 NA NA 15:00:00 TS 24.88 -65.06 728 728 _____________P -1 24.88 -65.06 TS 35 7 7
1881 NA NA 18:00:00 TS 25.20 -64.90 763 763 _____________O -1 25.20 -64.90 TS 35 7 25
1881 NA NA 21:00:00 TS 25.51 -64.73 799 799 _____________P -1 25.51 -64.73 TS 37 7 31
1881 NA NA 1881-08-30 00:00:00 TS 25.80 -64.50 835 835 _____________O -1 25.80 -64.50 TS 40 7 36
1881 NA NA 03:00:00 TS 26.10 -64.26 871 871 _____________P -1 26.10 -64.26 TS 40 8 37
1881 NA NA 06:00:00 TS 26.40 -64.00 909 909 _____________O -1 26.40 -64.00 TS 40 7 34
1881 NA NA 09:00:00 TS 26.68 -63.81 946 946 _____________P -1 26.68 -63.81 TS 40 8 37
1881 NA NA 12:00:00 TS 27.00 -63.50 985 985 _____________O -1 27.00 -63.50 TS 40 11 49
1881 NA NA 15:00:00 TS 27.39 -62.90 1043 1043 _____________P -1 27.39 -62.90 TS 40 14 55
1881 NA NA 18:00:00 TS 27.80 -62.20 1106 1106 _____________O -1 27.80 -62.20 TS 40 14 57
1881 NA NA 21:00:00 TS 28.15 -61.59 1158 1158 _____________P -1 28.15 -61.59 TS 42 13 57
1881 NA NA 1881-08-31 00:00:00 TS 28.50 -61.00 1222 1222 _____________O -1 28.50 -61.00 TS 45 13 54
1881 NA NA 03:00:00 TS 28.90 -60.41 1286 1286 _____________P -1 28.90 -60.41 TS 45 13 53
1881 NA NA 06:00:00 TS 29.30 -59.80 1352 1352 _____________O -1 29.30 -59.80 TS 45 13 55
1881 NA NA 09:00:00 TS 29.66 -59.17 1419 1419 _____________P -1 29.66 -59.17 TS 45 13 58
1881 NA NA 12:00:00 TS 30.00 -58.50 1481 1481 _____________O -1 30.00 -58.50 TS 45 14 62
1881 NA NA 15:00:00 TS 30.31 -57.76 1545 1545 _____________P -1 30.31 -57.76 TS 45 14 65
1881 NA NA 18:00:00 TS 30.60 -57.00 1611 1605 _____________O -1 30.60 -57.00 TS 45 14 64
1881 NA NA 21:00:00 TS 30.90 -56.34 1610 1603 _____________P -1 30.90 -56.34 TS 47 13 63
1881 NA NA 1881-09-01 00:00:00 TS 31.20 -55.60 1612 1611 _____________O -1 31.20 -55.60 TS 50 17 69
1881 NA NA 03:00:00 TS 31.51 -54.51 1628 1622 _____________P -1 31.51 -54.51 TS 50 19 71
1881 NA NA 06:00:00 TS 31.80 -53.50 1629 1622 _____________O -1 31.80 -53.50 TS 50 14 68
1881 NA NA 09:00:00 TS 32.04 -52.93 1625 1592 _____________P -1 32.04 -52.93 TS 50 8 54
1881 NA NA 12:00:00 TS 32.30 -52.70 1592 1558 _____________O -1 32.30 -52.70 TS 50 6 20
1881 NA NA 15:00:00 TS 32.63 -52.68 1558 1514 _____________P -1 32.63 -52.68 TS 50 7 353
1881 NA NA 18:00:00 TS 33.00 -52.80 1514 1480 _____________O -1 33.00 -52.80 TS 50 7 349
1881 NA NA 21:00:00 TS 33.35 -52.85 1480 1435 _____________P -1 33.35 -52.85 TS 50 7 354
1881 NA NA 1881-09-02 00:00:00 TS 33.70 -52.90 1435 1402 _____________O -1 33.70 -52.90 TS 50 7 353
1881 NA NA 03:00:00 TS 34.06 -52.96 1391 1357 _____________P -1 34.06 -52.96 TS 50 7 354
1881 NA NA 06:00:00 TS 34.40 -53.00 1357 1324 _____________O -1 34.40 -53.00 TS 50 7 356
1881 NA NA 09:00:00 TS 34.73 -53.02 1324 1290 _____________P -1 34.73 -53.02 TS 50 6 360
1881 NA NA 12:00:00 TS 35.00 -53.00 1290 1268 _____________O -1 35.00 -53.00 TS 50 5 4
1881 NA NA 15:00:00 TS 35.18 -52.96 1268 1257 _____________P -1 35.18 -52.96 TS 50 3 14
1881 NA NA 18:00:00 TS 35.30 -52.90 1257 1246 _____________O -1 35.30 -52.90 TS 50 2 22
1881 NA NA 21:00:00 TS 35.40 -52.85 1246 1235 _____________P -1 35.40 -52.85 TS 50 2 23
1881 NA NA 1881-09-03 00:00:00 TS 35.50 -52.80 1235 1224 _____________O -1 35.50 -52.80 TS 50 3 18
1881 NA NA 03:00:00 TS 35.65 -52.76 1224 1202 _____________P -1 35.65 -52.76 TS 50 3 14
1881 NA NA 06:00:00 TS 35.80 -52.70 1202 1191 _____________O -1 35.80 -52.70 TS 50 3 22
1881 NA NA 09:00:00 TS 35.91 -52.63 1191 1180 _____________P -1 35.91 -52.63 TS 50 3 40
1881 NA NA 12:00:00 TS 36.00 -52.50 1180 1169 _____________O -1 36.00 -52.50 TS 50 4 55
1881 NA NA 15:00:00 TS 36.11 -52.27 1170 1159 _____________P -1 36.11 -52.27 TS 50 5 64
1881 NA NA 18:00:00 TS 36.20 -52.00 1161 1151 _____________O -1 36.20 -52.00 TS 50 4 70
1881 NA NA 21:00:00 TS 36.26 -51.75 1152 1152 _____________P -1 36.26 -51.75 TS 50 4 76
1881 NA NA 1881-09-04 00:00:00 TS 36.30 -51.50 1154 1154 _____________O -1 36.30 -51.50 TS 50 4 77
1881 NA NA 03:00:00 TS 36.35 -51.25 1157 1146 _____________P -1 36.35 -51.25 TS 50 4 76
1881 NA NA 06:00:00 TS 36.40 -51.00 1149 1149 _____________O -1 36.40 -51.00 TS 50 4 78
1881 NA NA 09:00:00 TS 36.43 -50.76 1151 1142 _____________P -1 36.43 -50.76 TS 50 4 76
1881 NA NA 12:00:00 TS 36.50 -50.50 1145 1136 _____________O -1 36.50 -50.50 TS 50 5 66
1881 NA NA 15:00:00 TS 36.64 -50.17 1139 1123 _____________P -1 36.64 -50.17 TS 50 6 62
1881 NA NA 18:00:00 TS 36.80 -49.80 1125 1118 _____________O -1 36.80 -49.80 TS 50 7 67
1881 NA NA 21:00:00 TS 36.90 -49.40 1123 1117 _____________P -1 36.90 -49.40 TS 47 7 73
1881 NA NA 1881-09-05 00:00:00 TS 37.00 -49.00 1122 1114 _____________O -1 37.00 -49.00 TS 45 6 67
1881 NA NA 03:00:00 TS 37.15 -48.65 1122 1106 _____________P -1 37.15 -48.65 TS 42 6 62
1881 NA NA 06:00:00 TS 37.30 -48.30 1109 1105 _____________O -1 37.30 -48.30 TS 40 6 67
1881 NA NA 09:00:00 TS 37.40 -47.91 1111 1108 _____________P -1 37.40 -47.91 TS 37 7 73
1881 NA NA 12:00:00 TS 37.50 -47.50 1114 1111 _____________O -1 37.50 -47.50 TS 35 7 69
1881 NA NA 15:00:00 TS 37.65 -47.09 1118 1108 _____________P -1 37.65 -47.09 TS 32 7 65
1881 NA NA 18:00:00 TS 37.80 -46.70 1113 1111 _____________O -1 37.80 -46.70 TD 30 6 67
1881 NA NA 21:00:00 TS 37.90 -46.34 1119 1114 _____________P -1 37.90 -46.34 TD 30 6 70
1881 NA NA 1881-09-06 00:00:00 TS 38.00 -46.00 1122 1117 _____________O -1 38.00 -46.00 TD 30 6 65
1881 NA NA 03:00:00 TS 38.15 -45.66 1126 1120 _____________P -1 38.15 -45.66 TD 30 6 61
1881 NA NA 06:00:00 TS 38.30 -45.30 1125 1125 _____________O -1 38.30 -45.30 TD 30 6 66
1881 NA NA 09:00:00 TS 38.41 -44.91 1135 1135 _____________P -1 38.41 -44.91 TD 27 7 72
1881 NA NA 12:00:00 TS 38.50 -44.50 1145 _____________O -1 38.50 -44.50 TD 25 7 75